Time;durP1;ratioP1;P1;durP2;ratioP2;P2;SDS_P1;SDS_P2;PMS_P1;PMS_P2;Temp;Humidity;BMP_temperature;BMP_pressure;BME280_temperature;BME280_humidity;BME280_pressure;Samples;Min_cycle;Max_cycle;Signal;HPM_P1;HPM_P2
2022/09/27 00:01:07;;;;;;;19.50;13.80;;;;;;;8.06;95.25;97201.84;105241;1282;138922;-75
2022/09/27 00:03:37;;;;;;;20.30;14.90;;;;;;;8.05;95.01;97201.98;105286;1281;25250;-75
2022/09/27 00:06:07;;;;;;;19.30;14.60;;;;;;;8.02;95.10;97194.49;105352;1281;25266;-75
2022/09/27 00:08:35;;;;;;;25.80;15.30;;;;;;;8.02;95.68;97193.51;105241;1281;139082;-74
2022/09/27 00:11:12;;;;;;;24.20;15.50;;;;;;;8.03;95.87;97195.02;105378;1281;25356;-75
2022/09/27 00:13:39;;;;;;;21.40;15.70;;;;;;;8.05;95.80;97192.17;105261;1281;138800;-75
2022/09/27 00:16:06;;;;;;;22.10;15.50;;;;;;;8.08;96.53;97189.48;105193;1282;25461;-75
2022/09/27 00:18:33;;;;;;;21.70;14.60;;;;;;;8.12;96.74;97188.05;105238;1281;139408;-75
2022/09/27 00:21:09;;;;;;;25.20;15.40;;;;;;;8.16;96.84;97188.18;105341;1281;22564;-75
2022/09/27 00:23:37;;;;;;;30.30;14.60;;;;;;;8.20;96.64;97186.05;105352;1281;22704;-75
2022/09/27 00:26:06;;;;;;;25.60;15.10;;;;;;;8.22;96.84;97179.44;105219;1282;138899;-74
2022/09/27 00:28:33;;;;;;;;;;;;;;;8.24;96.70;97179.18;107096;1281;30559;-76
2022/09/27 00:31:00;;;;;;;45.90;13.40;;;;;;;8.23;96.37;97177.70;105292;1282;124897;-75
2022/09/27 00:33:27;;;;;;;35.50;11.80;;;;;;;8.21;96.60;97176.34;105449;1281;25254;-75
2022/09/27 00:35:54;;;;;;;29.70;11.60;;;;;;;8.19;96.45;97173.67;105357;1281;24346;-75
2022/09/27 00:38:22;;;;;;;36.80;12.30;;;;;;;8.17;96.80;97174.36;105122;1281;139264;-75
2022/09/27 00:40:50;;;;;;;24.40;9.70;;;;;;;8.13;96.63;97167.45;105301;1282;25392;-77
2022/09/27 00:43:20;;;;;;;33.90;12.10;;;;;;;8.08;96.83;97165.90;105189;1281;138487;-75
2022/09/27 00:46:01;;;;;;;25.60;11.60;;;;;;;8.04;97.48;97164.41;105563;1281;22562;-75
2022/09/27 00:48:32;;;;;;;19.30;12.50;;;;;;;8.03;97.68;97156.80;105283;1281;22739;-75
2022/09/27 00:51:04;;;;;;;20.50;11.50;;;;;;;8.03;98.13;97154.58;105076;1282;25266;-75
2022/09/27 00:53:40;;;;;;;16.70;11.50;;;;;;;8.04;97.87;97153.34;105427;1282;22579;-74
2022/09/27 00:56:11;;;;;;;17.20;12.00;;;;;;;8.05;97.85;97149.17;105162;1282;138861;-75
2022/09/27 00:58:44;;;;;;;18.10;11.80;;;;;;;8.05;97.64;97144.66;105001;1281;22707;-75
2022/09/27 01:01:12;;;;;;;17.70;12.10;;;;;;;8.04;96.92;97141.77;105112;1282;139434;-75
2022/09/27 01:03:48;;;;;;;18.40;12.10;;;;;;;8.03;97.40;97140.42;105140;1282;22563;-75
2022/09/27 01:06:17;;;;;;;16.20;12.10;;;;;;;8.02;97.27;97131.80;105276;1281;22658;-74
2022/09/27 01:08:44;;;;;;;20.60;13.50;;;;;;;8.00;96.93;97122.30;105013;1282;138435;-75
2022/09/27 01:11:31;;;;;;;19.10;12.80;;;;;;;7.99;96.87;97119.64;105125;1282;22869;-74
2022/09/27 01:14:25;;;;;;;15.80;12.00;;;;;;;7.98;97.10;97119.48;104969;1282;139314;-74
2022/09/27 01:17:19;;;;;;;17.50;12.00;;;;;;;7.97;96.99;97123.96;105320;1281;24236;-75
2022/09/27 01:20:20;;;;;;;17.40;11.90;;;;;;;7.95;96.96;97126.55;105150;1282;138413;-74
2022/09/27 01:22:57;;;;;;;15.10;10.30;;;;;;;7.94;96.44;97127.30;105235;1282;22560;-74
2022/09/27 01:25:33;;;;;;;16.30;11.50;;;;;;;7.89;95.83;97123.70;105253;1281;139221;-74
2022/09/27 01:28:19;;;;;;;15.70;11.50;;;;;;;7.82;95.11;97119.74;105385;1281;25444;-74
2022/09/27 01:30:48;;;;;;;16.30;11.40;;;;;;;7.73;94.50;97109.70;105333;1281;138812;-74
2022/09/27 01:33:30;;;;;;;18.40;11.80;;;;;;;7.69;94.92;97103.60;105074;1281;22594;-74
2022/09/27 01:35:57;;;;;;;18.40;11.30;;;;;;;7.66;95.07;97098.11;105175;1282;22845;-74
2022/09/27 01:38:35;;;;;;;17.50;11.20;;;;;;;7.64;95.38;97096.26;105264;1281;139072;-74
2022/09/27 01:41:23;;;;;;;16.60;11.20;;;;;;;7.60;95.24;97096.98;105229;1282;22751;-74
2022/09/27 01:44:43;;;;;;;14.80;11.30;;;;;;;7.55;94.88;97095.80;105266;1281;138955;-74
2022/09/27 01:47:21;;;;;;;17.30;11.30;;;;;;;7.48;94.63;97091.63;105212;1282;22716;-74
2022/09/27 01:50:05;;;;;;;18.70;11.30;;;;;;;7.41;94.92;97089.68;105219;1282;138674;-74
2022/09/27 01:52:49;;;;;;;18.90;12.70;;;;;;;7.36;94.88;97086.61;105186;1282;23975;-76
2022/09/27 01:55:21;;;;;;;17.30;10.90;;;;;;;7.35;95.36;97083.68;105246;1282;138495;-75
2022/09/27 01:58:37;;;;;;;14.90;10.40;;;;;;;7.34;95.49;97082.04;105260;1282;23006;-74
2022/09/27 02:01:06;;;;;;;18.20;11.00;;;;;;;7.32;95.46;97076.13;105076;1283;140405;-74
2022/09/27 02:03:41;;;;;;;16.80;11.60;;;;;;;7.31;95.10;97071.63;105309;1282;22568;-75
2022/09/27 02:06:40;;;;;;;17.00;12.00;;;;;;;7.29;95.47;97066.57;105082;1281;22560;-75
2022/09/27 02:09:27;;;;;;;17.70;11.70;;;;;;;7.29;95.30;97066.83;105533;1281;25296;-74
2022/09/27 02:12:26;;;;;;;15.30;10.80;;;;;;;7.27;95.31;97056.69;105097;1281;22582;-75
2022/09/27 02:15:10;;;;;;;16.00;10.60;;;;;;;7.26;95.51;97054.58;105784;1282;24236;-75
2022/09/27 02:17:52;;;;;;;15.70;11.20;;;;;;;7.26;95.51;97053.88;105477;1281;25276;-75
2022/09/27 02:20:30;;;;;;;16.90;12.10;;;;;;;7.25;95.06;97056.79;105291;1282;138720;-75
2022/09/27 02:23:20;;;;;;;15.80;10.70;;;;;;;7.23;95.12;97056.45;105419;1282;22592;-74
2022/09/27 02:26:23;;;;;;;14.80;10.80;;;;;;;7.22;94.69;97059.73;105280;1282;139435;-75
2022/09/27 02:29:15;;;;;;;15.90;11.00;;;;;;;7.19;94.51;97060.84;105445;1281;22686;-75
2022/09/27 02:31:50;;;;;;;16.00;10.60;;;;;;;7.14;94.46;97051.83;105316;1281;139333;-75
2022/09/27 02:34:30;;;;;;;15.90;11.00;;;;;;;7.10;94.22;97049.08;105264;1282;25537;-77
2022/09/27 02:36:57;;;;;;;16.90;11.10;;;;;;;7.09;94.39;97046.02;104965;1282;138594;-77
2022/09/27 02:39:24;;;;;;;17.80;10.60;;;;;;;7.07;94.27;97040.33;105200;1283;22546;-75
2022/09/27 02:42:00;;;;;;;14.90;10.70;;;;;;;7.05;94.22;97045.02;105149;1282;22741;-75
2022/09/27 02:44:28;;;;;;;19.20;11.20;;;;;;;7.02;94.07;97046.15;105234;1282;138810;-75
2022/09/27 02:46:58;;;;;;;19.90;12.00;;;;;;;6.99;94.15;97052.35;105473;1281;25444;-75
2022/09/27 02:49:47;;;;;;;22.90;12.40;;;;;;;6.99;94.51;97054.35;105083;1281;138424;-75
2022/09/27 02:52:47;;;;;;;16.30;11.30;;;;;;;7.00;94.68;97047.95;105174;1281;30253;-75
2022/09/27 02:55:54;;;;;;;17.40;11.40;;;;;;;7.00;94.72;97047.80;104916;1282;138917;-75
2022/09/27 02:59:06;;;;;;;16.80;11.00;;;;;;;6.96;94.38;97041.70;105071;1282;22563;-75
2022/09/27 03:02:27;;;;;;;15.60;10.80;;;;;;;6.94;94.39;97041.24;105048;1281;138834;-75
2022/09/27 03:05:30;;;;;;;15.30;10.80;;;;;;;6.90;94.10;97033.63;105162;1281;22754;-75
2022/09/27 03:07:57;;;;;;;14.00;9.40;;;;;;;6.84;93.52;97029.09;105018;1284;139244;-76
2022/09/27 03:10:28;;;;;;;17.50;10.20;;;;;;;6.74;92.88;97027.36;105421;1282;25394;-76
2022/09/27 03:12:57;;;;;;;13.80;10.30;;;;;;;6.64;93.40;97022.84;105305;1281;138800;-76
2022/09/27 03:15:24;;;;;;;14.20;9.90;;;;;;;6.60;93.75;97024.52;105040;1282;22756;-75
2022/09/27 03:18:01;;;;;;;16.00;10.20;;;;;;;6.53;93.32;97019.52;105397;1281;23201;-76
2022/09/27 03:20:30;;;;;;;13.90;10.10;;;;;;;6.48;93.44;97024.55;105246;1281;138254;-76
2022/09/27 03:23:24;;;;;;;12.70;8.50;;;;;;;6.40;93.05;97032.69;104997;1282;30467;-77
2022/09/27 03:25:52;;;;;;;17.40;9.80;;;;;;;6.26;92.55;97031.99;104871;1284;139050;-76
2022/09/27 03:28:19;;;;;;;19.80;11.80;;;;;;;6.12;92.93;97037.18;104964;1284;22546;-76
2022/09/27 03:30:46;;;;;;;15.10;10.00;;;;;;;6.04;93.37;97041.57;105051;1282;138749;-76
2022/09/27 03:33:21;;;;;;;21.60;10.80;;;;;;;5.94;93.81;97044.40;105229;1282;22556;-75
2022/09/27 03:35:52;;;;;;;18.50;11.20;;;;;;;5.86;94.27;97040.45;105217;1282;24942;-76
2022/09/27 03:38:18;;;;;;;17.80;11.60;;;;;;;5.82;94.75;97041.18;105124;1282;139613;-76
2022/09/27 03:40:45;;;;;;;18.70;12.50;;;;;;;5.79;95.27;97040.18;105347;1281;25505;-76
2022/09/27 03:43:13;;;;;;;18.00;11.60;;;;;;;5.80;95.93;97034.63;105304;1281;139229;-76
2022/09/27 03:45:44;;;;;;;17.90;12.40;;;;;;;5.81;95.85;97026.80;105180;1281;24312;-76
2022/09/27 03:48:11;;;;;;;19.80;12.70;;;;;;;5.84;96.05;97021.94;105365;1282;24331;-76
2022/09/27 03:50:38;;;;;;;16.10;11.40;;;;;;;5.86;96.20;97016.50;105187;1281;138665;-76
2022/09/27 03:53:05;;;;;;;13.90;10.10;;;;;;;5.90;96.43;97008.33;105240;1281;25239;-75
2022/09/27 03:55:32;;;;;;;17.00;10.90;;;;;;;5.95;96.79;97003.65;105318;1281;138237;-75
2022/09/27 03:57:59;;;;;;;16.70;10.90;;;;;;;5.99;96.87;97003.73;105396;1281;22593;-75
2022/09/27 04:00:31;;;;;;;13.70;9.70;;;;;;;6.03;96.81;96998.73;105457;1281;25257;-75
2022/09/27 04:02:59;;;;;;;13.50;9.50;;;;;;;6.05;96.72;96990.08;105515;1281;22561;-75
2022/09/27 04:05:27;;;;;;;13.00;9.60;;;;;;;6.08;96.82;96990.70;105356;1282;25336;-75
2022/09/27 04:08:05;;;;;;;14.00;9.50;;;;;;;6.11;96.63;96993.64;105365;1281;138055;-75
2022/09/27 04:10:32;;;;;;;14.10;9.60;;;;;;;6.14;96.64;96994.77;105199;1281;25710;-75
2022/09/27 04:12:59;;;;;;;12.40;9.30;;;;;;;6.15;96.51;96993.59;105054;1283;139042;-75
2022/09/27 04:15:29;;;;;;;12.70;9.40;;;;;;;6.18;96.77;96988.00;105596;1281;22744;-75
2022/09/27 04:18:32;;;;;;;12.80;8.70;;;;;;;6.21;96.44;96985.38;104612;1287;138455;-75
2022/09/27 04:21:19;;;;;;;13.50;9.60;;;;;;;6.22;96.50;96992.20;105294;1284;24312;-76
2022/09/27 04:23:50;;;;;;;15.50;9.60;;;;;;;6.22;96.02;96998.65;105634;1281;22596;-76
2022/09/27 04:26:18;;;;;;;15.80;10.50;;;;;;;6.21;95.92;96999.31;105238;1283;138504;-76
2022/09/27 04:29:01;;;;;;;19.20;11.50;;;;;;;6.20;96.05;96991.92;105430;1281;22557;-75
2022/09/27 04:31:28;;;;;;;18.70;10.30;;;;;;;6.19;96.03;96987.15;105347;1281;138804;-75
2022/09/27 04:36:25;;;;;;;16.50;10.90;;;;;;;6.18;95.91;96984.48;105276;1281;22545;-78
2022/09/27 04:37:10;;;;;;;18.00;10.70;;;;;;;6.16;95.93;96981.06;105118;1284;138631;-76
2022/09/27 04:39:44;;;;;;;16.20;10.10;;;;;;;6.14;95.95;96989.03;105245;1284;22553;-76
2022/09/27 04:42:10;;;;;;;16.50;10.80;;;;;;;6.14;96.18;96988.55;105446;1281;22590;-76
2022/09/27 04:44:38;;;;;;;14.80;9.80;;;;;;;6.17;96.05;96982.75;105036;1284;138287;-76
2022/09/27 04:47:04;;;;;;;16.80;10.20;;;;;;;6.17;95.93;96971.23;105246;1282;24208;-76
2022/09/27 04:49:31;;;;;;;16.10;10.10;;;;;;;6.16;95.92;96976.45;105306;1282;139719;-76
2022/09/27 04:51:58;;;;;;;16.60;11.00;;;;;;;6.15;95.72;96984.39;105160;1284;22562;-76
2022/09/27 04:54:25;;;;;;;16.60;10.60;;;;;;;6.14;95.89;96993.15;105365;1281;25409;-76
2022/09/27 04:57:04;;;;;;;13.80;10.20;;;;;;;6.14;95.96;96997.25;105173;1281;25368;-76
2022/09/27 04:59:31;;;;;;;19.10;9.60;;;;;;;6.13;95.60;97001.67;105393;1281;24311;-76
2022/09/27 05:02:00;;;;;;;14.80;9.80;;;;;;;6.11;95.60;96997.16;105337;1282;138812;-76
2022/09/27 05:04:50;;;;;;;15.30;10.10;;;;;;;6.11;95.77;96995.11;105215;1284;22670;-76
2022/09/27 05:07:19;;;;;;;19.50;9.60;;;;;;;6.11;95.69;96987.48;105118;1284;139030;-76
2022/09/27 05:09:51;;;;;;;15.50;10.10;;;;;;;6.14;95.91;96986.87;105526;1284;22719;-76
2022/09/27 05:12:19;;;;;;;14.30;9.20;;;;;;;6.16;96.03;96979.06;105237;1281;22731;-76
2022/09/27 05:14:56;;;;;;;13.10;9.10;;;;;;;6.17;95.96;96976.70;105631;1281;22551;-76
2022/09/27 05:17:42;;;;;;;14.60;10.00;;;;;;;6.21;96.46;96973.88;105410;1281;25429;-79
2022/09/27 05:20:28;;;;;;;12.10;8.40;;;;;;;6.25;96.38;96974.52;105727;1281;138703;-76
2022/09/27 05:23:21;;;;;;;13.10;9.00;;;;;;;6.28;96.36;96974.80;105362;1281;23820;-76
2022/09/27 05:25:48;;;;;;;13.10;8.10;;;;;;;6.33;97.05;96966.48;105131;1284;138500;-76
2022/09/27 05:28:15;;;;;;;12.20;8.70;;;;;;;6.39;97.11;96955.62;105133;1283;23411;-76
2022/09/27 05:30:42;;;;;;;10.80;8.00;;;;;;;6.45;97.29;96952.53;105408;1281;138961;-76
2022/09/27 05:33:15;;;;;;;10.20;7.10;;;;;;;6.50;97.21;96954.37;105357;1281;25417;-76
2022/09/27 05:35:53;;;;;;;9.00;7.00;;;;;;;6.55;97.30;96953.55;105481;1281;24103;-76
2022/09/27 05:38:21;;;;;;;11.30;7.40;;;;;;;6.60;97.61;96950.23;105170;1284;138602;-76
2022/09/27 05:40:50;;;;;;;9.40;6.30;;;;;;;6.65;97.59;96952.23;105393;1281;22541;-76
2022/09/27 05:43:20;;;;;;;10.20;6.60;;;;;;;6.71;97.99;96951.10;105481;1281;138475;-76
2022/09/27 05:45:47;;;;;;;10.20;7.50;;;;;;;6.75;98.02;96949.67;105414;1284;22541;-77
2022/09/27 05:48:16;;;;;;;13.40;8.10;;;;;;;6.81;97.97;96946.87;105297;1281;25380;-77
2022/09/27 05:50:52;;;;;;;10.30;8.10;;;;;;;6.89;98.47;96945.77;105115;1283;138183;-76
2022/09/27 05:53:19;;;;;;;10.90;8.40;;;;;;;6.98;98.86;96946.40;105361;1281;25550;-76
2022/09/27 05:55:46;;;;;;;14.10;8.80;;;;;;;7.06;99.12;96939.91;104992;1281;138750;-76
2022/09/27 05:58:15;;;;;;;11.20;8.40;;;;;;;7.16;99.18;96943.11;105022;1284;24400;-74
2022/09/27 06:01:08;;;;;;;14.40;10.80;;;;;;;7.37;100.00;96942.27;105100;1284;140542;-74
2022/09/27 06:03:48;;;;;;;20.60;11.90;;;;;;;7.64;100.00;96935.32;105331;1284;22840;-73
2022/09/27 06:06:36;;;;;;;18.50;12.40;;;;;;;7.95;100.00;96933.71;105468;1281;139203;-75
2022/09/27 06:09:03;;;;;;;15.70;11.30;;;;;;;8.21;100.00;96927.23;105696;1284;22578;-76
2022/09/27 06:11:31;;;;;;;18.50;10.40;;;;;;;8.38;100.00;96931.77;106222;1281;24226;-76
2022/09/27 06:13:59;;;;;;;16.10;10.80;;;;;;;8.48;99.32;96930.73;105035;1282;138953;-76
2022/09/27 06:16:31;;;;;;;19.50;10.60;;;;;;;8.58;98.89;96930.14;105583;1281;22536;-75
2022/09/27 06:19:00;;;;;;;16.50;11.00;;;;;;;8.66;98.48;96930.86;105181;1282;138787;-74
2022/09/27 06:21:27;;;;;;;17.80;11.20;;;;;;;8.77;99.34;96934.78;105958;1282;22566;-76
2022/09/27 06:24:00;;;;;;;16.00;11.70;;;;;;;8.98;99.91;96938.47;105369;1282;22590;-76
2022/09/27 06:26:32;;;;;;;17.60;12.90;;;;;;;9.19;99.61;96943.28;105391;1281;138754;-76
2022/09/27 06:29:15;;;;;;;21.80;12.60;;;;;;;9.41;98.97;96946.73;105221;1283;22560;-75
2022/09/27 06:31:56;;;;;;;14.80;11.00;;;;;;;9.62;98.77;96949.29;105730;1281;138662;-76
2022/09/27 06:34:33;;;;;;;14.90;10.20;;;;;;;9.82;98.24;96947.76;106026;1282;23931;-76
2022/09/27 06:37:00;;;;;;;15.60;9.90;;;;;;;9.99;97.84;96941.44;106948;1282;139151;-76
2022/09/27 06:39:27;;;;;;;12.30;8.60;;;;;;;10.17;96.83;96942.17;106017;1281;22548;-76
2022/09/27 06:42:03;;;;;;;13.60;10.30;;;;;;;10.32;96.34;96936.02;105782;1282;22562;-75
2022/09/27 06:44:49;;;;;;;12.90;9.70;;;;;;;10.48;95.54;96932.24;105260;1282;138743;-75
2022/09/27 06:47:38;;;;;;;13.70;9.20;;;;;;;10.64;95.36;96939.09;105703;1281;29337;-75
2022/09/27 06:50:16;;;;;;;13.30;9.80;;;;;;;10.77;95.04;96935.08;105292;1281;138559;-74
2022/09/27 06:52:48;;;;;;;11.60;9.70;;;;;;;10.91;94.94;96936.98;105825;1281;25272;-75
2022/09/27 06:55:15;;;;;;;;;;;;;;;11.03;94.47;96935.80;105752;1281;139583;-75
2022/09/27 07:00:29;;;;;;;13.20;8.60;;;;;;;11.22;93.14;96938.15;105716;1282;22715;-75
2022/09/27 07:03:15;;;;;;;12.00;8.40;;;;;;;11.33;92.67;96936.84;105778;1281;22584;-75
2022/09/27 07:06:17;;;;;;;12.50;9.20;;;;;;;11.41;92.29;96938.73;104921;1281;24299;-76
2022/09/27 07:08:51;;;;;;;12.10;8.70;;;;;;;11.52;91.95;96938.34;105472;1279;141129;-76
2022/09/27 07:11:18;;;;;;;12.00;9.20;;;;;;;11.62;91.51;96935.89;105428;1284;25475;-76
2022/09/27 07:13:45;;;;;;;12.00;9.70;;;;;;;11.71;91.24;96936.08;105184;1283;138988;-75
2022/09/27 07:16:13;;;;;;;17.60;10.40;;;;;;;11.75;90.09;96937.49;105404;1281;26036;-75
2022/09/27 07:18:42;;;;;;;12.40;10.80;;;;;;;11.73;89.59;96934.09;105290;1281;139473;-75
2022/09/27 07:21:11;;;;;;;13.30;9.40;;;;;;;11.76;90.08;96931.22;105808;1280;23020;-73
2022/09/27 07:23:38;;;;;;;;;;;;;;;11.87;90.28;96929.88;105385;1282;138936;-74
2022/09/27 07:26:09;;;;;;;10.60;7.70;;;;;;;11.94;90.09;96925.13;105551;1281;25531;-74
2022/09/27 07:28:38;;;;;;;13.60;8.10;;;;;;;11.99;89.44;96928.08;105353;1281;138336;-74
2022/09/27 07:31:06;;;;;;;10.00;7.00;;;;;;;12.03;89.08;96927.98;105556;1281;22563;-74
2022/09/27 07:33:33;;;;;;;9.00;6.90;;;;;;;12.04;88.16;96925.29;105213;1281;22544;-73
2022/09/27 07:36:09;;;;;;;8.60;7.50;;;;;;;12.07;87.97;96921.00;105373;1282;138539;-73
2022/09/27 07:38:38;;;;;;;13.70;9.10;;;;;;;12.08;88.24;96920.48;105373;1282;138671;-74
2022/09/27 07:41:12;;;;;;;13.00;8.80;;;;;;;12.13;88.43;96922.33;105356;1283;22713;-74
2022/09/27 07:43:41;;;;;;;13.80;9.50;;;;;;;12.16;87.96;96918.48;105257;1281;23847;-73
2022/09/27 07:46:09;;;;;;;15.90;10.90;;;;;;;12.19;88.16;96914.52;105546;1282;138870;-74
2022/09/27 07:48:51;;;;;;;14.20;10.20;;;;;;;12.22;87.84;96912.07;105030;1281;22719;-74
2022/09/27 07:51:37;;;;;;;12.50;7.80;;;;;;;12.30;88.31;96916.11;105286;1281;139077;-73
2022/09/27 07:54:07;;;;;;;11.80;8.40;;;;;;;12.36;88.11;96912.91;105337;1282;22570;-74
2022/09/27 07:56:57;;;;;;;9.60;7.50;;;;;;;12.42;88.01;96907.20;104655;1281;138829;-74
2022/09/27 07:59:24;;;;;;;9.60;8.00;;;;;;;12.49;87.61;96904.98;105311;1282;25245;-74
2022/09/27 08:01:52;;;;;;;10.60;7.40;;;;;;;12.55;87.04;96904.34;105445;1281;22541;-74
2022/09/27 08:04:19;;;;;;;10.40;7.30;;;;;;;12.63;87.34;96908.36;105837;1279;33080;-75
2022/09/27 08:06:46;;;;;;;10.60;7.70;;;;;;;12.71;87.29;96910.21;105819;1281;24412;-74
2022/09/27 08:09:13;;;;;;;8.70;7.20;;;;;;;12.80;87.13;96909.04;105075;1282;138416;-74
2022/09/27 08:11:43;;;;;;;8.60;6.80;;;;;;;12.86;86.53;96908.71;105524;1281;25442;-74
2022/09/27 08:14:11;;;;;;;10.10;6.90;;;;;;;12.93;86.08;96909.98;105290;1282;138507;-75
2022/09/27 08:16:40;;;;;;;11.30;7.40;;;;;;;12.99;85.68;96911.73;105366;1281;25255;-74
2022/09/27 08:19:31;;;;;;;10.00;6.30;;;;;;;13.05;85.25;96910.70;105286;1283;30566;-74
2022/09/27 08:22:27;;;;;;;8.50;6.30;;;;;;;13.12;85.20;96906.86;104636;1282;22680;-74
2022/09/27 08:25:03;;;;;;;11.70;7.00;;;;;;;13.21;85.48;96902.88;105251;1282;23939;-74
2022/09/27 08:27:55;;;;;;;9.50;7.00;;;;;;;13.33;84.86;96897.48;105043;1281;138404;-74
2022/09/27 08:30:44;;;;;;;7.70;6.40;;;;;;;13.43;84.14;96897.59;105360;1282;22543;-74
2022/09/27 08:33:12;;;;;;;10.60;7.10;;;;;;;13.52;84.06;96898.86;105596;1282;138742;-74
2022/09/27 08:35:39;;;;;;;7.70;6.30;;;;;;;13.61;84.00;96900.21;105308;1281;25703;-74
2022/09/27 08:38:06;;;;;;;10.00;7.20;;;;;;;13.70;84.12;96889.36;105379;1281;138741;-75
2022/09/27 08:40:43;;;;;;;7.90;7.20;;;;;;;13.80;83.77;96892.40;105432;1281;22620;-74
2022/09/27 08:43:14;;;;;;;9.00;7.10;;;;;;;13.90;83.57;96891.81;105424;1281;24541;-74
2022/09/27 08:45:54;;;;;;;10.50;7.10;;;;;;;13.98;82.93;96893.02;105710;1279;138377;-75
2022/09/27 08:48:25;;;;;;;10.00;7.30;;;;;;;14.03;82.37;96887.53;105626;1281;22682;-74
2022/09/27 08:50:53;;;;;;;9.60;7.30;;;;;;;14.11;82.10;96884.52;105413;1281;139019;-74
2022/09/27 08:53:48;;;;;;;12.10;7.60;;;;;;;14.18;82.36;96882.55;105344;1281;25388;-74
2022/09/27 08:56:20;;;;;;;9.70;7.60;;;;;;;14.28;82.17;96885.67;105479;1281;139074;-74
2022/09/27 08:58:58;;;;;;;13.70;8.50;;;;;;;14.37;81.75;96888.52;105326;1283;22557;-74
2022/09/27 09:01:31;;;;;;;10.60;7.50;;;;;;;14.45;81.27;96885.32;105980;1281;22554;-74
2022/09/27 09:04:11;;;;;;;9.50;8.00;;;;;;;14.48;80.81;96879.72;105509;1279;138990;-74
2022/09/27 09:06:50;;;;;;;9.80;8.80;;;;;;;14.50;80.82;96877.15;105363;1281;22563;-74
2022/09/27 09:09:36;;;;;;;;;;;;;;;14.58;80.61;96877.98;105091;1281;138575;-73
2022/09/27 09:12:47;;;;;;;10.20;9.00;;;;;;;14.67;80.48;96873.48;105367;1281;25333;-74
2022/09/27 09:15:53;;;;;;;12.70;8.40;;;;;;;14.72;79.88;96871.07;105352;1281;138803;-74
2022/09/27 09:18:36;;;;;;;11.60;8.20;;;;;;;14.78;79.41;96866.53;106011;1282;22671;-74
2022/09/27 09:21:34;;;;;;;10.60;7.70;;;;;;;14.90;79.59;96861.66;105335;1282;138908;-74
2022/09/27 09:24:30;;;;;;;10.30;8.30;;;;;;;14.99;78.86;96857.98;105109;1281;25444;-74
2022/09/27 09:27:12;;;;;;;12.00;7.50;;;;;;;15.11;78.49;96856.17;105463;1281;138757;-74
2022/09/27 09:29:49;;;;;;;11.90;7.70;;;;;;;15.25;78.11;96852.85;105366;1281;24271;-74
2022/09/27 09:32:54;;;;;;;14.00;8.80;;;;;;;15.34;77.51;96842.13;105284;1282;139648;-74
2022/09/27 09:35:32;;;;;;;13.30;8.70;;;;;;;15.48;77.67;96839.79;105209;1282;22554;-74
2022/09/27 09:38:05;;;;;;;9.90;7.50;;;;;;;15.61;77.38;96838.54;105274;1282;139501;-74
2022/09/27 09:40:42;;;;;;;11.00;7.70;;;;;;;15.73;76.32;96827.45;105414;1282;22556;-74
2022/09/27 09:43:20;;;;;;;11.80;8.30;;;;;;;15.82;75.32;96814.59;105393;1281;22577;-74
2022/09/27 09:45:55;;;;;;;;;;;;;;;15.89;75.03;96813.33;105183;1282;139562;-74
2022/09/27 09:48:32;;;;;;;10.70;8.30;;;;;;;15.95;75.08;96809.38;105562;1281;24315;-74
2022/09/27 09:51:06;;;;;;;12.60;8.30;;;;;;;16.03;74.55;96810.67;105188;1282;140848;-74
2022/09/27 09:53:40;;;;;;;11.50;8.20;;;;;;;16.13;74.74;96809.66;105114;1281;23973;-74
2022/09/27 09:56:32;;;;;;;11.40;8.10;;;;;;;16.22;74.75;96809.77;105312;1282;138760;-74
2022/09/27 09:59:04;;;;;;;13.30;8.20;;;;;;;16.34;74.32;96803.79;105378;1281;22560;-74
2022/09/27 10:01:43;;;;;;;11.90;8.50;;;;;;;16.43;73.92;96803.50;105717;1281;23654;-74
2022/09/27 10:04:25;;;;;;;8.80;7.90;;;;;;;16.52;74.20;96799.80;105752;1279;139102;-74
2022/09/27 10:06:57;;;;;;;8.10;7.20;;;;;;;16.60;73.41;96796.75;105038;1282;22563;-74
2022/09/27 10:09:27;;;;;;;10.00;6.70;;;;;;;16.66;73.03;96793.61;105100;1280;139988;-74
2022/09/27 10:12:30;;;;;;;10.10;7.90;;;;;;;16.79;72.59;96786.34;105219;1281;30261;-74
2022/09/27 10:15:01;;;;;;;9.20;7.80;;;;;;;16.89;72.51;96786.35;105244;1282;139534;-74
2022/09/27 10:17:40;;;;;;;9.70;7.90;;;;;;;17.01;72.23;96781.42;105328;1281;25627;-74
2022/09/27 10:20:21;;;;;;;11.60;7.90;;;;;;;17.11;71.76;96774.85;105654;1282;139171;-73
2022/09/27 10:23:04;;;;;;;12.50;7.70;;;;;;;17.20;71.72;96772.43;105392;1282;30382;-74
2022/09/27 10:25:54;;;;;;;12.70;8.70;;;;;;;17.30;70.97;96772.33;105716;1281;25662;-74
2022/09/27 10:28:50;;;;;;;12.40;9.60;;;;;;;17.34;70.94;96766.06;105480;1281;25493;-75
2022/09/27 10:31:22;;;;;;;15.50;10.10;;;;;;;17.41;71.05;96768.87;105105;1281;25923;-75
2022/09/27 10:34:01;;;;;;;14.50;10.70;;;;;;;17.52;70.50;96768.38;105406;1281;138747;-74
2022/09/27 10:36:31;;;;;;;16.30;9.80;;;;;;;17.59;69.90;96766.25;105081;1281;22585;-75
2022/09/27 10:39:03;;;;;;;12.50;8.90;;;;;;;17.64;69.66;96756.58;105428;1281;138530;-74
2022/09/27 10:41:41;;;;;;;13.50;9.10;;;;;;;17.72;69.61;96753.98;105607;1281;25338;-75
2022/09/27 10:44:19;;;;;;;10.60;8.90;;;;;;;17.80;69.31;96750.65;105417;1281;138603;-75
2022/09/27 10:47:00;;;;;;;9.00;7.60;;;;;;;17.88;69.45;96749.77;105422;1281;22811;-74
2022/09/27 10:49:47;;;;;;;8.50;7.50;;;;;;;17.96;69.18;96749.71;105178;1282;25472;-75
2022/09/27 10:52:26;;;;;;;7.70;7.00;;;;;;;18.01;68.38;96748.36;105132;1281;22552;-75
2022/09/27 10:54:56;;;;;;;8.10;7.30;;;;;;;18.02;68.53;96744.27;105536;1281;25656;-75
2022/09/27 10:57:27;;;;;;;7.20;6.20;;;;;;;17.98;68.34;96738.14;105470;1281;138598;-74
2022/09/27 10:59:59;;;;;;;7.50;6.60;;;;;;;17.90;67.91;96736.26;105123;1281;22556;-74
2022/09/27 11:02:38;;;;;;;8.10;6.60;;;;;;;17.76;67.46;96727.70;105988;1281;139010;-75
2022/09/27 11:05:14;;;;;;;7.50;6.50;;;;;;;17.70;68.07;96724.16;105633;1281;24298;-75
2022/09/27 11:07:52;;;;;;;6.90;6.20;;;;;;;17.74;67.96;96725.82;105193;1282;22584;-73
2022/09/27 11:10:26;;;;;;;8.30;5.60;;;;;;;17.73;68.35;96729.00;105160;1281;139769;-73
2022/09/27 11:13:11;;;;;;;5.90;5.30;;;;;;;17.74;68.22;96728.08;105762;1281;24323;-74
2022/09/27 11:16:07;;;;;;;6.20;5.60;;;;;;;17.86;67.53;96729.58;105292;1281;138459;-73
2022/09/27 11:18:46;;;;;;;6.20;4.80;;;;;;;17.96;67.52;96727.98;105406;1281;25409;-73
2022/09/27 11:21:25;;;;;;;5.90;5.00;;;;;;;18.00;68.23;96726.88;105257;1282;138246;-73
2022/09/27 11:23:55;;;;;;;7.00;5.90;;;;;;;18.02;68.35;96723.89;105403;1281;24329;-73
2022/09/27 11:26:27;;;;;;;7.00;5.90;;;;;;;18.04;68.08;96715.77;105378;1281;138380;-74
2022/09/27 11:29:06;;;;;;;6.60;5.40;;;;;;;18.07;68.11;96714.77;105256;1282;24307;-73
2022/09/27 11:32:27;;;;;;;6.20;5.40;;;;;;;18.14;67.64;96706.31;105084;1281;138645;-74
2022/09/27 11:35:10;;;;;;;7.60;5.80;;;;;;;18.22;67.76;96710.30;105497;1281;31883;-73
2022/09/27 11:37:43;;;;;;;5.80;5.00;;;;;;;18.34;68.08;96707.17;105089;1281;23433;-73
2022/09/27 11:40:23;;;;;;;6.70;5.30;;;;;;;18.47;67.40;96706.91;105226;1281;266539;-73
2022/09/27 11:43:21;;;;;;;7.40;5.30;;;;;;;18.60;67.24;96704.71;105319;1281;23960;-73
2022/09/27 11:46:05;;;;;;;5.70;5.00;;;;;;;18.67;66.40;96700.71;105368;1282;138208;-73
2022/09/27 11:48:44;;;;;;;6.30;5.00;;;;;;;18.72;66.08;96695.74;105166;1282;26580;-73
2022/09/27 11:51:27;;;;;;;7.50;5.30;;;;;;;18.79;66.30;96696.48;105383;1281;138354;-73
2022/09/27 11:54:25;;;;;;;9.10;5.50;;;;;;;18.87;66.26;96693.54;105355;1281;22963;-73
2022/09/27 11:57:17;;;;;;;6.50;4.50;;;;;;;18.88;65.64;96693.10;105111;1282;138316;-73
2022/09/27 11:59:55;;;;;;;6.30;5.40;;;;;;;18.88;65.09;96691.52;105349;1282;24414;-73
2022/09/27 12:02:57;;;;;;;8.20;5.60;;;;;;;18.86;64.98;96690.66;105636;1282;138248;-74
2022/09/27 12:05:46;;;;;;;6.60;5.10;;;;;;;18.82;65.27;96683.11;105556;1281;28899;-73